TYF weather

Torsby Airport
Värmlanda län, Sweden

Public forecast

Using degrees Celsius for public forecast. Weather courtesy of forecast.io.

METAR (pilot weather report)

Retrieved 2019/07/17 23:20 UTC (22 minutes ago):

ESST 172320Z AUTO VRB01KT 9999 BKN120/// 14/10 Q1011

TAF (pilot weather forecast)

Forecast is more than 12 hours old.

Closest forecast is Karlstad Airport, 44.1 nm (81.6 km) SSE. Retrieved 2017/05/22 06:33 UTC (2 years ago):

TAF ESOK 220530Z 2206/2224 28006KT CAVOK